sensor_id;sensor_type;location;lat;lon;timestamp;P1;durP1;ratioP1;P2;durP2;ratioP2
37843;SDS011;63793;57.632;18.292;2023-11-19T00:01:34;3.83;;;3.17;;
37843;SDS011;63793;57.632;18.292;2023-11-19T00:04:01;6.75;;;3.95;;
37843;SDS011;63793;57.632;18.292;2023-11-19T00:06:31;5.30;;;3.55;;
37843;SDS011;63793;57.632;18.292;2023-11-19T00:08:58;5.07;;;3.97;;
37843;SDS011;63793;57.632;18.292;2023-11-19T00:11:26;7.80;;;4.22;;
37843;SDS011;63793;57.632;18.292;2023-11-19T00:13:54;13.18;;;4.75;;
37843;SDS011;63793;57.632;18.292;2023-11-19T00:16:21;7.35;;;4.78;;
37843;SDS011;63793;57.632;18.292;2023-11-19T00:18:48;8.90;;;5.63;;
37843;SDS011;63793;57.632;18.292;2023-11-19T00:21:16;6.47;;;4.45;;
37843;SDS011;63793;57.632;18.292;2023-11-19T00:23:43;7.70;;;4.78;;
37843;SDS011;63793;57.632;18.292;2023-11-19T00:26:10;7.80;;;5.03;;
37843;SDS011;63793;57.632;18.292;2023-11-19T00:28:39;8.13;;;5.70;;
37843;SDS011;63793;57.632;18.292;2023-11-19T00:31:06;7.03;;;5.22;;
37843;SDS011;63793;57.632;18.292;2023-11-19T00:33:33;9.15;;;5.20;;
37843;SDS011;63793;57.632;18.292;2023-11-19T00:36:00;6.82;;;4.85;;
37843;SDS011;63793;57.632;18.292;2023-11-19T00:38:27;7.35;;;4.25;;
37843;SDS011;63793;57.632;18.292;2023-11-19T00:40:54;8.95;;;3.60;;
37843;SDS011;63793;57.632;18.292;2023-11-19T00:43:21;7.07;;;4.07;;
37843;SDS011;63793;57.632;18.292;2023-11-19T00:45:48;10.23;;;4.28;;
37843;SDS011;63793;57.632;18.292;2023-11-19T00:48:17;8.07;;;4.20;;
37843;SDS011;63793;57.632;18.292;2023-11-19T00:50:44;6.50;;;3.67;;
37843;SDS011;63793;57.632;18.292;2023-11-19T00:53:12;6.18;;;3.65;;
37843;SDS011;63793;57.632;18.292;2023-11-19T00:55:39;5.25;;;3.85;;
37843;SDS011;63793;57.632;18.292;2023-11-19T00:58:08;5.03;;;4.47;;
37843;SDS011;63793;57.632;18.292;2023-11-19T01:00:35;6.53;;;4.20;;
37843;SDS011;63793;57.632;18.292;2023-11-19T01:03:02;4.32;;;3.58;;
37843;SDS011;63793;57.632;18.292;2023-11-19T01:05:29;7.03;;;3.63;;
37843;SDS011;63793;57.632;18.292;2023-11-19T01:07:56;5.38;;;3.17;;
37843;SDS011;63793;57.632;18.292;2023-11-19T01:10:23;6.75;;;3.78;;
37843;SDS011;63793;57.632;18.292;2023-11-19T01:12:52;6.40;;;2.95;;
37843;SDS011;63793;57.632;18.292;2023-11-19T01:15:20;5.97;;;2.90;;
37843;SDS011;63793;57.632;18.292;2023-11-19T01:17:47;4.80;;;3.42;;
37843;SDS011;63793;57.632;18.292;2023-11-19T01:20:17;3.65;;;2.70;;
37843;SDS011;63793;57.632;18.292;2023-11-19T01:22:44;3.10;;;2.45;;
37843;SDS011;63793;57.632;18.292;2023-11-19T01:25:11;5.22;;;2.83;;
37843;SDS011;63793;57.632;18.292;2023-11-19T01:27:38;3.53;;;2.75;;
37843;SDS011;63793;57.632;18.292;2023-11-19T01:30:05;3.70;;;3.25;;
37843;SDS011;63793;57.632;18.292;2023-11-19T01:32:35;3.47;;;3.00;;
37843;SDS011;63793;57.632;18.292;2023-11-19T01:35:03;3.67;;;3.20;;
37843;SDS011;63793;57.632;18.292;2023-11-19T01:37:30;5.85;;;3.20;;
37843;SDS011;63793;57.632;18.292;2023-11-19T01:39:58;3.08;;;2.63;;
37843;SDS011;63793;57.632;18.292;2023-11-19T01:42:26;3.38;;;2.83;;
37843;SDS011;63793;57.632;18.292;2023-11-19T01:45:00;3.97;;;2.35;;
37843;SDS011;63793;57.632;18.292;2023-11-19T01:47:27;6.80;;;4.13;;
37843;SDS011;63793;57.632;18.292;2023-11-19T01:49:56;4.43;;;2.88;;
37843;SDS011;63793;57.632;18.292;2023-11-19T01:52:24;3.22;;;2.92;;
37843;SDS011;63793;57.632;18.292;2023-11-19T01:54:52;4.20;;;3.33;;
37843;SDS011;63793;57.632;18.292;2023-11-19T01:57:21;4.93;;;2.75;;
37843;SDS011;63793;57.632;18.292;2023-11-19T01:59:50;3.72;;;2.45;;
37843;SDS011;63793;57.632;18.292;2023-11-19T02:02:18;3.22;;;2.67;;
37843;SDS011;63793;57.632;18.292;2023-11-19T02:04:49;2.78;;;2.30;;
37843;SDS011;63793;57.632;18.292;2023-11-19T02:07:17;3.33;;;2.97;;
37843;SDS011;63793;57.632;18.292;2023-11-19T02:09:45;3.65;;;3.13;;
37843;SDS011;63793;57.632;18.292;2023-11-19T02:12:11;5.72;;;3.80;;
37843;SDS011;63793;57.632;18.292;2023-11-19T02:14:39;3.53;;;2.70;;
37843;SDS011;63793;57.632;18.292;2023-11-19T02:17:07;3.88;;;3.28;;
37843;SDS011;63793;57.632;18.292;2023-11-19T02:19:51;3.20;;;2.70;;
37843;SDS011;63793;57.632;18.292;2023-11-19T02:22:18;3.67;;;3.10;;
37843;SDS011;63793;57.632;18.292;2023-11-19T02:24:45;3.80;;;2.55;;
37843;SDS011;63793;57.632;18.292;2023-11-19T02:27:16;6.65;;;3.05;;
37843;SDS011;63793;57.632;18.292;2023-11-19T02:29:55;6.43;;;3.60;;
37843;SDS011;63793;57.632;18.292;2023-11-19T02:32:23;3.42;;;2.72;;
37843;SDS011;63793;57.632;18.292;2023-11-19T02:34:53;3.03;;;2.75;;
37843;SDS011;63793;57.632;18.292;2023-11-19T02:37:32;5.13;;;3.10;;
37843;SDS011;63793;57.632;18.292;2023-11-19T02:39:59;3.80;;;2.75;;
37843;SDS011;63793;57.632;18.292;2023-11-19T02:42:36;2.80;;;2.50;;
37843;SDS011;63793;57.632;18.292;2023-11-19T02:45:03;4.07;;;2.00;;
37843;SDS011;63793;57.632;18.292;2023-11-19T02:47:33;2.50;;;2.30;;
37843;SDS011;63793;57.632;18.292;2023-11-19T02:50:01;4.38;;;2.70;;
37843;SDS011;63793;57.632;18.292;2023-11-19T02:52:28;4.97;;;3.55;;
37843;SDS011;63793;57.632;18.292;2023-11-19T02:54:55;3.67;;;2.15;;
37843;SDS011;63793;57.632;18.292;2023-11-19T02:57:22;4.32;;;2.97;;
37843;SDS011;63793;57.632;18.292;2023-11-19T02:59:49;3.72;;;2.53;;
37843;SDS011;63793;57.632;18.292;2023-11-19T03:02:16;3.28;;;2.40;;
37843;SDS011;63793;57.632;18.292;2023-11-19T03:04:44;3.53;;;2.30;;
37843;SDS011;63793;57.632;18.292;2023-11-19T03:07:12;3.17;;;2.50;;
37843;SDS011;63793;57.632;18.292;2023-11-19T03:09:40;2.83;;;2.53;;
37843;SDS011;63793;57.632;18.292;2023-11-19T03:12:07;4.90;;;2.92;;
37843;SDS011;63793;57.632;18.292;2023-11-19T03:14:34;3.55;;;2.25;;
37843;SDS011;63793;57.632;18.292;2023-11-19T03:17:01;3.30;;;2.70;;
37843;SDS011;63793;57.632;18.292;2023-11-19T03:19:30;3.03;;;2.35;;
37843;SDS011;63793;57.632;18.292;2023-11-19T03:21:57;2.78;;;2.30;;
37843;SDS011;63793;57.632;18.292;2023-11-19T03:24:24;5.85;;;2.25;;
37843;SDS011;63793;57.632;18.292;2023-11-19T03:26:51;2.50;;;2.30;;
37843;SDS011;63793;57.632;18.292;2023-11-19T03:29:18;3.30;;;1.70;;
37843;SDS011;63793;57.632;18.292;2023-11-19T03:31:45;2.63;;;1.77;;
37843;SDS011;63793;57.632;18.292;2023-11-19T03:34:12;3.15;;;2.22;;
37843;SDS011;63793;57.632;18.292;2023-11-19T03:36:39;2.92;;;2.10;;
37843;SDS011;63793;57.632;18.292;2023-11-19T03:39:06;2.92;;;2.35;;
37843;SDS011;63793;57.632;18.292;2023-11-19T03:41:33;2.10;;;1.58;;
37843;SDS011;63793;57.632;18.292;2023-11-19T03:44:03;2.15;;;1.67;;
37843;SDS011;63793;57.632;18.292;2023-11-19T03:46:30;2.35;;;1.52;;
37843;SDS011;63793;57.632;18.292;2023-11-19T03:48:57;3.13;;;1.92;;
37843;SDS011;63793;57.632;18.292;2023-11-19T03:51:24;6.85;;;1.95;;
37843;SDS011;63793;57.632;18.292;2023-11-19T03:53:51;2.03;;;1.05;;
37843;SDS011;63793;57.632;18.292;2023-11-19T03:56:18;3.17;;;1.55;;
37843;SDS011;63793;57.632;18.292;2023-11-19T03:58:47;1.60;;;1.50;;
37843;SDS011;63793;57.632;18.292;2023-11-19T04:01:14;2.90;;;1.38;;
37843;SDS011;63793;57.632;18.292;2023-11-19T04:03:41;1.83;;;1.73;;
37843;SDS011;63793;57.632;18.292;2023-11-19T04:06:11;1.88;;;1.60;;
37843;SDS011;63793;57.632;18.292;2023-11-19T04:08:38;1.52;;;1.40;;
37843;SDS011;63793;57.632;18.292;2023-11-19T04:11:05;2.47;;;1.75;;
37843;SDS011;63793;57.632;18.292;2023-11-19T04:13:32;2.67;;;1.88;;
37843;SDS011;63793;57.632;18.292;2023-11-19T04:15:59;2.20;;;1.63;;
37843;SDS011;63793;57.632;18.292;2023-11-19T04:18:27;2.30;;;2.03;;
37843;SDS011;63793;57.632;18.292;2023-11-19T04:20:54;2.15;;;1.92;;
37843;SDS011;63793;57.632;18.292;2023-11-19T04:23:21;2.33;;;1.70;;
37843;SDS011;63793;57.632;18.292;2023-11-19T04:25:48;1.70;;;1.08;;
37843;SDS011;63793;57.632;18.292;2023-11-19T04:28:15;2.58;;;1.63;;
37843;SDS011;63793;57.632;18.292;2023-11-19T04:30:42;4.95;;;1.95;;
37843;SDS011;63793;57.632;18.292;2023-11-19T04:33:10;1.80;;;1.55;;
37843;SDS011;63793;57.632;18.292;2023-11-19T04:35:37;1.77;;;1.38;;
37843;SDS011;63793;57.632;18.292;2023-11-19T04:38:04;2.72;;;2.00;;
37843;SDS011;63793;57.632;18.292;2023-11-19T04:40:31;2.40;;;1.45;;
37843;SDS011;63793;57.632;18.292;2023-11-19T04:43:00;3.42;;;1.95;;
37843;SDS011;63793;57.632;18.292;2023-11-19T04:45:27;2.55;;;2.20;;
37843;SDS011;63793;57.632;18.292;2023-11-19T04:47:54;2.55;;;1.90;;
37843;SDS011;63793;57.632;18.292;2023-11-19T04:50:21;2.30;;;2.10;;
37843;SDS011;63793;57.632;18.292;2023-11-19T04:52:48;2.47;;;2.25;;
37843;SDS011;63793;57.632;18.292;2023-11-19T04:55:15;2.47;;;1.80;;
37843;SDS011;63793;57.632;18.292;2023-11-19T04:57:42;2.25;;;1.48;;
37843;SDS011;63793;57.632;18.292;2023-11-19T05:00:09;3.22;;;2.33;;
37843;SDS011;63793;57.632;18.292;2023-11-19T05:02:40;3.28;;;2.63;;
37843;SDS011;63793;57.632;18.292;2023-11-19T05:05:07;2.40;;;2.20;;
37843;SDS011;63793;57.632;18.292;2023-11-19T05:07:35;2.28;;;1.73;;
37843;SDS011;63793;57.632;18.292;2023-11-19T05:10:03;2.65;;;2.28;;
37843;SDS011;63793;57.632;18.292;2023-11-19T05:12:31;2.65;;;1.83;;
37843;SDS011;63793;57.632;18.292;2023-11-19T05:14:58;3.55;;;2.20;;
37843;SDS011;63793;57.632;18.292;2023-11-19T05:17:25;3.17;;;2.10;;
37843;SDS011;63793;57.632;18.292;2023-11-19T05:19:52;2.50;;;2.20;;
37843;SDS011;63793;57.632;18.292;2023-11-19T05:22:20;2.85;;;2.22;;
37843;SDS011;63793;57.632;18.292;2023-11-19T05:24:47;4.15;;;2.72;;
37843;SDS011;63793;57.632;18.292;2023-11-19T05:27:16;3.10;;;2.30;;
37843;SDS011;63793;57.632;18.292;2023-11-19T05:29:43;3.60;;;3.10;;
37843;SDS011;63793;57.632;18.292;2023-11-19T05:32:10;5.70;;;2.90;;
37843;SDS011;63793;57.632;18.292;2023-11-19T05:34:37;3.50;;;2.33;;
37843;SDS011;63793;57.632;18.292;2023-11-19T05:37:17;4.38;;;3.58;;
37843;SDS011;63793;57.632;18.292;2023-11-19T05:39:45;4.38;;;2.50;;
37843;SDS011;63793;57.632;18.292;2023-11-19T05:42:12;4.40;;;3.47;;
37843;SDS011;63793;57.632;18.292;2023-11-19T05:44:39;4.82;;;3.72;;
37843;SDS011;63793;57.632;18.292;2023-11-19T05:47:07;4.70;;;3.70;;
37843;SDS011;63793;57.632;18.292;2023-11-19T05:49:34;4.57;;;3.38;;
37843;SDS011;63793;57.632;18.292;2023-11-19T05:52:01;4.20;;;3.28;;
37843;SDS011;63793;57.632;18.292;2023-11-19T05:54:30;3.60;;;3.10;;
37843;SDS011;63793;57.632;18.292;2023-11-19T05:56:58;4.65;;;3.60;;
37843;SDS011;63793;57.632;18.292;2023-11-19T05:59:25;4.70;;;4.03;;
37843;SDS011;63793;57.632;18.292;2023-11-19T06:01:52;4.80;;;3.58;;
37843;SDS011;63793;57.632;18.292;2023-11-19T06:04:19;3.92;;;3.00;;
37843;SDS011;63793;57.632;18.292;2023-11-19T06:06:46;3.78;;;3.13;;
37843;SDS011;63793;57.632;18.292;2023-11-19T06:09:13;4.53;;;3.80;;
37843;SDS011;63793;57.632;18.292;2023-11-19T06:11:40;4.70;;;2.92;;
37843;SDS011;63793;57.632;18.292;2023-11-19T06:14:07;4.82;;;3.40;;
37843;SDS011;63793;57.632;18.292;2023-11-19T06:16:34;7.90;;;3.80;;
37843;SDS011;63793;57.632;18.292;2023-11-19T06:19:01;4.07;;;3.67;;
37843;SDS011;63793;57.632;18.292;2023-11-19T06:21:28;4.95;;;3.95;;
37843;SDS011;63793;57.632;18.292;2023-11-19T06:23:55;3.60;;;3.20;;
37843;SDS011;63793;57.632;18.292;2023-11-19T06:26:22;5.35;;;3.10;;
37843;SDS011;63793;57.632;18.292;2023-11-19T06:28:49;4.72;;;3.40;;
37843;SDS011;63793;57.632;18.292;2023-11-19T06:31:16;4.30;;;2.92;;
37843;SDS011;63793;57.632;18.292;2023-11-19T06:33:43;6.05;;;3.17;;
37843;SDS011;63793;57.632;18.292;2023-11-19T06:36:10;5.47;;;3.38;;
37843;SDS011;63793;57.632;18.292;2023-11-19T06:38:43;5.80;;;3.65;;
37843;SDS011;63793;57.632;18.292;2023-11-19T06:41:10;3.42;;;3.13;;
37843;SDS011;63793;57.632;18.292;2023-11-19T06:43:37;4.57;;;2.92;;
37843;SDS011;63793;57.632;18.292;2023-11-19T06:46:14;3.65;;;2.88;;
37843;SDS011;63793;57.632;18.292;2023-11-19T06:48:44;3.88;;;3.25;;
37843;SDS011;63793;57.632;18.292;2023-11-19T06:51:12;4.70;;;3.25;;
37843;SDS011;63793;57.632;18.292;2023-11-19T06:53:39;4.57;;;2.65;;
37843;SDS011;63793;57.632;18.292;2023-11-19T06:56:17;3.40;;;2.58;;
37843;SDS011;63793;57.632;18.292;2023-11-19T06:58:48;5.47;;;2.80;;
37843;SDS011;63793;57.632;18.292;2023-11-19T07:01:15;4.00;;;3.13;;
37843;SDS011;63793;57.632;18.292;2023-11-19T07:03:47;4.85;;;3.53;;
37843;SDS011;63793;57.632;18.292;2023-11-19T07:06:15;3.95;;;2.88;;
37843;SDS011;63793;57.632;18.292;2023-11-19T07:08:42;4.30;;;3.25;;
37843;SDS011;63793;57.632;18.292;2023-11-19T07:11:13;3.70;;;2.53;;
37843;SDS011;63793;57.632;18.292;2023-11-19T07:13:42;4.22;;;3.10;;
37843;SDS011;63793;57.632;18.292;2023-11-19T07:16:09;3.13;;;2.80;;
37843;SDS011;63793;57.632;18.292;2023-11-19T07:18:36;6.00;;;4.13;;
37843;SDS011;63793;57.632;18.292;2023-11-19T07:21:04;4.22;;;3.53;;
37843;SDS011;63793;57.632;18.292;2023-11-19T07:23:31;4.35;;;2.90;;
37843;SDS011;63793;57.632;18.292;2023-11-19T07:26:00;3.97;;;2.90;;
37843;SDS011;63793;57.632;18.292;2023-11-19T07:28:28;4.30;;;2.75;;
37843;SDS011;63793;57.632;18.292;2023-11-19T07:30:55;4.32;;;3.75;;
37843;SDS011;63793;57.632;18.292;2023-11-19T07:33:24;3.97;;;2.75;;
37843;SDS011;63793;57.632;18.292;2023-11-19T07:35:51;3.95;;;3.33;;
37843;SDS011;63793;57.632;18.292;2023-11-19T07:38:18;5.57;;;3.42;;
37843;SDS011;63793;57.632;18.292;2023-11-19T07:40:45;4.00;;;3.47;;
37843;SDS011;63793;57.632;18.292;2023-11-19T07:43:16;3.67;;;3.33;;
37843;SDS011;63793;57.632;18.292;2023-11-19T07:45:46;3.95;;;3.20;;
37843;SDS011;63793;57.632;18.292;2023-11-19T07:48:13;6.10;;;3.20;;
37843;SDS011;63793;57.632;18.292;2023-11-19T07:50:41;6.13;;;3.17;;
37843;SDS011;63793;57.632;18.292;2023-11-19T07:53:08;4.70;;;2.85;;
37843;SDS011;63793;57.632;18.292;2023-11-19T07:55:35;4.05;;;2.60;;
37843;SDS011;63793;57.632;18.292;2023-11-19T07:58:07;4.43;;;3.60;;
37843;SDS011;63793;57.632;18.292;2023-11-19T08:00:34;4.40;;;3.15;;
37843;SDS011;63793;57.632;18.292;2023-11-19T08:03:01;4.35;;;3.10;;
37843;SDS011;63793;57.632;18.292;2023-11-19T08:05:29;4.10;;;3.15;;
37843;SDS011;63793;57.632;18.292;2023-11-19T08:07:57;3.55;;;2.35;;
37843;SDS011;63793;57.632;18.292;2023-11-19T08:10:24;4.95;;;3.30;;
37843;SDS011;63793;57.632;18.292;2023-11-19T08:12:51;9.23;;;3.47;;
37843;SDS011;63793;57.632;18.292;2023-11-19T08:15:18;3.08;;;2.78;;
37843;SDS011;63793;57.632;18.292;2023-11-19T08:17:57;10.73;;;3.65;;
37843;SDS011;63793;57.632;18.292;2023-11-19T08:20:25;7.88;;;3.50;;
37843;SDS011;63793;57.632;18.292;2023-11-19T08:22:52;4.65;;;3.20;;
37843;SDS011;63793;57.632;18.292;2023-11-19T08:25:19;5.65;;;4.00;;
37843;SDS011;63793;57.632;18.292;2023-11-19T08:27:46;4.97;;;3.28;;
37843;SDS011;63793;57.632;18.292;2023-11-19T08:30:13;7.10;;;3.97;;
37843;SDS011;63793;57.632;18.292;2023-11-19T08:32:40;6.07;;;3.33;;
37843;SDS011;63793;57.632;18.292;2023-11-19T08:35:07;4.35;;;3.20;;
37843;SDS011;63793;57.632;18.292;2023-11-19T08:37:35;6.15;;;4.00;;
37843;SDS011;63793;57.632;18.292;2023-11-19T08:40:03;4.13;;;3.05;;
37843;SDS011;63793;57.632;18.292;2023-11-19T08:42:31;5.10;;;3.40;;
37843;SDS011;63793;57.632;18.292;2023-11-19T08:44:58;5.60;;;3.63;;
37843;SDS011;63793;57.632;18.292;2023-11-19T08:47:24;4.57;;;2.90;;
37843;SDS011;63793;57.632;18.292;2023-11-19T08:49:51;5.88;;;3.45;;
37843;SDS011;63793;57.632;18.292;2023-11-19T08:52:22;4.43;;;3.42;;
37843;SDS011;63793;57.632;18.292;2023-11-19T08:54:49;5.20;;;3.08;;
37843;SDS011;63793;57.632;18.292;2023-11-19T08:57:16;3.60;;;2.53;;
37843;SDS011;63793;57.632;18.292;2023-11-19T08:59:43;3.50;;;2.58;;
37843;SDS011;63793;57.632;18.292;2023-11-19T09:02:12;5.32;;;3.47;;
37843;SDS011;63793;57.632;18.292;2023-11-19T09:04:39;6.35;;;3.05;;
37843;SDS011;63793;57.632;18.292;2023-11-19T09:07:07;4.45;;;3.47;;
37843;SDS011;63793;57.632;18.292;2023-11-19T09:09:35;3.05;;;2.55;;
37843;SDS011;63793;57.632;18.292;2023-11-19T09:12:03;4.97;;;3.33;;
37843;SDS011;63793;57.632;18.292;2023-11-19T09:14:30;6.03;;;4.88;;
37843;SDS011;63793;57.632;18.292;2023-11-19T09:16:57;7.15;;;6.13;;
37843;SDS011;63793;57.632;18.292;2023-11-19T09:19:24;9.30;;;8.48;;
37843;SDS011;63793;57.632;18.292;2023-11-19T09:21:53;6.88;;;6.28;;
37843;SDS011;63793;57.632;18.292;2023-11-19T09:24:20;5.75;;;4.82;;
37843;SDS011;63793;57.632;18.292;2023-11-19T09:26:47;5.05;;;3.85;;
37843;SDS011;63793;57.632;18.292;2023-11-19T09:29:14;4.68;;;3.22;;
37843;SDS011;63793;57.632;18.292;2023-11-19T09:31:41;4.10;;;3.35;;
37843;SDS011;63793;57.632;18.292;2023-11-19T09:34:08;5.38;;;3.38;;
37843;SDS011;63793;57.632;18.292;2023-11-19T09:36:35;6.03;;;3.83;;
37843;SDS011;63793;57.632;18.292;2023-11-19T09:39:02;5.63;;;4.15;;
37843;SDS011;63793;57.632;18.292;2023-11-19T09:41:31;5.82;;;4.22;;
37843;SDS011;63793;57.632;18.292;2023-11-19T09:43:59;5.03;;;3.67;;
37843;SDS011;63793;57.632;18.292;2023-11-19T09:46:26;7.05;;;4.13;;
37843;SDS011;63793;57.632;18.292;2023-11-19T09:48:54;7.22;;;4.05;;
37843;SDS011;63793;57.632;18.292;2023-11-19T09:51:24;6.20;;;4.45;;
37843;SDS011;63793;57.632;18.292;2023-11-19T09:53:51;8.30;;;4.78;;
37843;SDS011;63793;57.632;18.292;2023-11-19T09:56:18;6.30;;;4.10;;
37843;SDS011;63793;57.632;18.292;2023-11-19T09:58:46;4.63;;;3.95;;
37843;SDS011;63793;57.632;18.292;2023-11-19T10:01:13;7.25;;;4.53;;
37843;SDS011;63793;57.632;18.292;2023-11-19T10:06:13;8.20;;;4.38;;
37843;SDS011;63793;57.632;18.292;2023-11-19T10:08:41;5.03;;;4.50;;
37843;SDS011;63793;57.632;18.292;2023-11-19T10:11:09;7.25;;;5.35;;
37843;SDS011;63793;57.632;18.292;2023-11-19T10:16:09;7.45;;;3.50;;
37843;SDS011;63793;57.632;18.292;2023-11-19T10:18:48;11.40;;;4.65;;
37843;SDS011;63793;57.632;18.292;2023-11-19T10:21:19;5.93;;;4.65;;
37843;SDS011;63793;57.632;18.292;2023-11-19T10:23:50;6.32;;;4.78;;
37843;SDS011;63793;57.632;18.292;2023-11-19T10:26:23;6.68;;;5.63;;
37843;SDS011;63793;57.632;18.292;2023-11-19T10:28:50;7.05;;;5.18;;
37843;SDS011;63793;57.632;18.292;2023-11-19T10:31:17;9.50;;;5.22;;
37843;SDS011;63793;57.632;18.292;2023-11-19T10:33:45;7.38;;;5.07;;
37843;SDS011;63793;57.632;18.292;2023-11-19T10:36:14;7.47;;;5.22;;
37843;SDS011;63793;57.632;18.292;2023-11-19T10:38:41;7.65;;;5.03;;
37843;SDS011;63793;57.632;18.292;2023-11-19T10:43:58;6.03;;;4.10;;
37843;SDS011;63793;57.632;18.292;2023-11-19T10:46:42;7.05;;;4.82;;
37843;SDS011;63793;57.632;18.292;2023-11-19T10:49:10;5.97;;;4.22;;
37843;SDS011;63793;57.632;18.292;2023-11-19T10:51:38;5.43;;;4.20;;
37843;SDS011;63793;57.632;18.292;2023-11-19T10:54:12;6.45;;;4.93;;
37843;SDS011;63793;57.632;18.292;2023-11-19T10:56:43;6.22;;;4.65;;
37843;SDS011;63793;57.632;18.292;2023-11-19T10:59:13;8.60;;;5.00;;
37843;SDS011;63793;57.632;18.292;2023-11-19T11:01:46;6.35;;;4.93;;
37843;SDS011;63793;57.632;18.292;2023-11-19T11:04:19;9.40;;;5.78;;
37843;SDS011;63793;57.632;18.292;2023-11-19T11:06:51;9.77;;;5.53;;
37843;SDS011;63793;57.632;18.292;2023-11-19T11:09:18;9.82;;;6.80;;
37843;SDS011;63793;57.632;18.292;2023-11-19T11:11:48;12.70;;;6.85;;
37843;SDS011;63793;57.632;18.292;2023-11-19T11:14:18;10.18;;;7.00;;
37843;SDS011;63793;57.632;18.292;2023-11-19T11:16:48;12.75;;;9.05;;
37843;SDS011;63793;57.632;18.292;2023-11-19T11:19:16;10.32;;;6.68;;
37843;SDS011;63793;57.632;18.292;2023-11-19T11:21:47;10.73;;;6.55;;
37843;SDS011;63793;57.632;18.292;2023-11-19T11:26:57;7.10;;;5.30;;
37843;SDS011;63793;57.632;18.292;2023-11-19T11:32:40;9.18;;;5.70;;
37843;SDS011;63793;57.632;18.292;2023-11-19T11:38:04;6.70;;;5.30;;
37843;SDS011;63793;57.632;18.292;2023-11-19T11:40:33;7.82;;;5.90;;
37843;SDS011;63793;57.632;18.292;2023-11-19T11:43:02;6.85;;;4.75;;
37843;SDS011;63793;57.632;18.292;2023-11-19T11:45:35;5.90;;;4.22;;
37843;SDS011;63793;57.632;18.292;2023-11-19T11:48:15;7.45;;;5.25;;
37843;SDS011;63793;57.632;18.292;2023-11-19T11:50:52;5.63;;;4.57;;
37843;SDS011;63793;57.632;18.292;2023-11-19T11:53:22;8.20;;;5.47;;
37843;SDS011;63793;57.632;18.292;2023-11-19T11:58:36;7.75;;;4.80;;
37843;SDS011;63793;57.632;18.292;2023-11-19T12:01:04;13.77;;;6.80;;
37843;SDS011;63793;57.632;18.292;2023-11-19T12:03:34;6.75;;;5.28;;
37843;SDS011;63793;57.632;18.292;2023-11-19T12:06:03;7.60;;;5.97;;
37843;SDS011;63793;57.632;18.292;2023-11-19T12:08:31;5.15;;;4.65;;
37843;SDS011;63793;57.632;18.292;2023-11-19T12:11:18;4.97;;;3.38;;
37843;SDS011;63793;57.632;18.292;2023-11-19T12:13:47;4.95;;;4.45;;
37843;SDS011;63793;57.632;18.292;2023-11-19T12:16:28;5.85;;;4.82;;
37843;SDS011;63793;57.632;18.292;2023-11-19T12:18:57;5.07;;;4.22;;
37843;SDS011;63793;57.632;18.292;2023-11-19T12:21:32;4.97;;;3.30;;
37843;SDS011;63793;57.632;18.292;2023-11-19T12:23:59;4.18;;;3.15;;
37843;SDS011;63793;57.632;18.292;2023-11-19T12:26:34;5.18;;;3.78;;
37843;SDS011;63793;57.632;18.292;2023-11-19T12:29:04;5.40;;;4.07;;
37843;SDS011;63793;57.632;18.292;2023-11-19T12:31:34;6.85;;;4.25;;
37843;SDS011;63793;57.632;18.292;2023-11-19T12:34:05;3.88;;;3.50;;
37843;SDS011;63793;57.632;18.292;2023-11-19T12:36:33;4.63;;;4.07;;
37843;SDS011;63793;57.632;18.292;2023-11-19T12:39:01;5.65;;;4.15;;
37843;SDS011;63793;57.632;18.292;2023-11-19T12:41:28;4.35;;;3.35;;
37843;SDS011;63793;57.632;18.292;2023-11-19T12:44:08;3.65;;;3.30;;
37843;SDS011;63793;57.632;18.292;2023-11-19T12:49:03;5.20;;;3.42;;
37843;SDS011;63793;57.632;18.292;2023-11-19T12:51:32;4.30;;;2.83;;
37843;SDS011;63793;57.632;18.292;2023-11-19T12:54:00;3.20;;;2.90;;
37843;SDS011;63793;57.632;18.292;2023-11-19T12:56:27;3.95;;;3.30;;
37843;SDS011;63793;57.632;18.292;2023-11-19T12:58:54;5.18;;;3.00;;
37843;SDS011;63793;57.632;18.292;2023-11-19T13:01:21;5.20;;;2.83;;
37843;SDS011;63793;57.632;18.292;2023-11-19T13:03:48;4.80;;;2.72;;
37843;SDS011;63793;57.632;18.292;2023-11-19T13:06:16;5.78;;;2.85;;
37843;SDS011;63793;57.632;18.292;2023-11-19T13:08:47;5.10;;;2.70;;
37843;SDS011;63793;57.632;18.292;2023-11-19T13:11:29;4.03;;;2.88;;
37843;SDS011;63793;57.632;18.292;2023-11-19T13:14:02;3.78;;;3.38;;
37843;SDS011;63793;57.632;18.292;2023-11-19T13:16:36;5.38;;;3.55;;
37843;SDS011;63793;57.632;18.292;2023-11-19T13:19:03;3.17;;;2.75;;
37843;SDS011;63793;57.632;18.292;2023-11-19T13:21:31;3.67;;;2.97;;
37843;SDS011;63793;57.632;18.292;2023-11-19T13:23:58;4.28;;;3.60;;
37843;SDS011;63793;57.632;18.292;2023-11-19T13:26:25;5.00;;;2.90;;
37843;SDS011;63793;57.632;18.292;2023-11-19T13:28:52;3.13;;;2.83;;
37843;SDS011;63793;57.632;18.292;2023-11-19T13:31:19;3.88;;;2.25;;
37843;SDS011;63793;57.632;18.292;2023-11-19T13:33:46;3.03;;;2.38;;
37843;SDS011;63793;57.632;18.292;2023-11-19T13:36:13;3.53;;;3.22;;
37843;SDS011;63793;57.632;18.292;2023-11-19T13:38:43;4.25;;;2.70;;
37843;SDS011;63793;57.632;18.292;2023-11-19T13:41:13;3.80;;;3.20;;
37843;SDS011;63793;57.632;18.292;2023-11-19T13:43:40;3.92;;;2.58;;
37843;SDS011;63793;57.632;18.292;2023-11-19T13:46:07;4.45;;;3.13;;
37843;SDS011;63793;57.632;18.292;2023-11-19T13:48:37;2.80;;;2.38;;
37843;SDS011;63793;57.632;18.292;2023-11-19T13:51:05;3.25;;;2.92;;
37843;SDS011;63793;57.632;18.292;2023-11-19T13:53:32;4.78;;;3.53;;
37843;SDS011;63793;57.632;18.292;2023-11-19T13:56:17;6.93;;;3.58;;
37843;SDS011;63793;57.632;18.292;2023-11-19T13:58:44;3.83;;;3.40;;
37843;SDS011;63793;57.632;18.292;2023-11-19T14:01:12;4.38;;;3.13;;
37843;SDS011;63793;57.632;18.292;2023-11-19T14:03:40;3.97;;;3.58;;
37843;SDS011;63793;57.632;18.292;2023-11-19T14:06:08;4.50;;;3.53;;
37843;SDS011;63793;57.632;18.292;2023-11-19T14:08:42;5.22;;;3.10;;
37843;SDS011;63793;57.632;18.292;2023-11-19T14:11:09;3.22;;;2.88;;
37843;SDS011;63793;57.632;18.292;2023-11-19T14:13:36;3.40;;;2.92;;
37843;SDS011;63793;57.632;18.292;2023-11-19T14:16:03;3.35;;;3.00;;
37843;SDS011;63793;57.632;18.292;2023-11-19T14:18:33;2.90;;;2.60;;
37843;SDS011;63793;57.632;18.292;2023-11-19T14:21:01;4.82;;;2.92;;
37843;SDS011;63793;57.632;18.292;2023-11-19T14:23:29;5.50;;;2.53;;
37843;SDS011;63793;57.632;18.292;2023-11-19T14:25:56;3.13;;;2.75;;
37843;SDS011;63793;57.632;18.292;2023-11-19T14:28:23;3.35;;;2.88;;
37843;SDS011;63793;57.632;18.292;2023-11-19T14:30:52;3.88;;;3.08;;
37843;SDS011;63793;57.632;18.292;2023-11-19T14:33:23;4.00;;;3.03;;
37843;SDS011;63793;57.632;18.292;2023-11-19T14:35:50;4.13;;;3.47;;
37843;SDS011;63793;57.632;18.292;2023-11-19T14:38:18;4.60;;;3.10;;
37843;SDS011;63793;57.632;18.292;2023-11-19T14:40:45;5.65;;;3.60;;
37843;SDS011;63793;57.632;18.292;2023-11-19T14:43:12;4.15;;;3.40;;
37843;SDS011;63793;57.632;18.292;2023-11-19T14:45:40;4.97;;;3.60;;
37843;SDS011;63793;57.632;18.292;2023-11-19T14:48:15;5.72;;;3.92;;
37843;SDS011;63793;57.632;18.292;2023-11-19T14:50:44;4.15;;;3.75;;
37843;SDS011;63793;57.632;18.292;2023-11-19T14:53:11;5.75;;;4.20;;
37843;SDS011;63793;57.632;18.292;2023-11-19T14:55:38;8.13;;;5.05;;
37843;SDS011;63793;57.632;18.292;2023-11-19T14:58:05;4.68;;;4.28;;
37843;SDS011;63793;57.632;18.292;2023-11-19T15:00:38;4.85;;;3.75;;
37843;SDS011;63793;57.632;18.292;2023-11-19T15:03:05;4.60;;;4.20;;